Time;durP1;ratioP1;P1;durP2;ratioP2;P2;SDS_P1;SDS_P2;PMS_P1;PMS_P2;Temp;Humidity;BMP_temperature;BMP_pressure;BME280_temperature;BME280_humidity;BME280_pressure;Samples;Min_cycle;Max_cycle;Signal;HPM_P1;HPM_P2
2023/04/24 00:00:40;;;;;;;42.78;39.53;;;8.20;99.90;;;;;;5151855;28;20042;-73
2023/04/24 00:03:12;;;;;;;35.22;32.90;;;8.00;99.90;;;;;;5149020;28;20041;-71
2023/04/24 00:05:43;;;;;;;37.13;34.70;;;8.20;99.90;;;;;;5162252;28;20477;-73
2023/04/24 00:08:14;;;;;;;40.90;37.90;;;8.30;99.90;;;;;;5162086;28;20019;-73
2023/04/24 00:10:46;;;;;;;34.22;31.73;;;8.40;99.90;;;;;;5148438;28;20031;-72
2023/04/24 00:13:17;;;;;;;33.58;31.17;;;8.30;99.90;;;;;;5147393;28;20478;-74
2023/04/24 00:15:47;;;;;;;31.48;29.45;;;8.20;99.90;;;;;;5163578;28;20026;-72
2023/04/24 00:18:18;;;;;;;32.63;30.23;;;8.70;99.90;;;;;;5149756;28;20026;-72
2023/04/24 00:20:49;;;;;;;33.00;30.90;;;8.60;99.90;;;;;;5149107;28;20039;-72
2023/04/24 00:23:20;;;;;;;32.33;30.17;;;8.60;99.90;;;;;;5149212;28;20049;-73
2023/04/24 00:25:51;;;;;;;32.80;30.10;;;8.60;99.90;;;;;;5157901;28;20036;-72
2023/04/24 00:28:21;;;;;;;32.05;29.65;;;8.60;99.90;;;;;;5163365;28;20029;-71
2023/04/24 00:30:52;;;;;;;31.35;29.15;;;8.80;99.90;;;;;;5164043;28;20045;-74
2023/04/24 00:33:23;;;;;;;37.97;34.85;;;8.70;99.90;;;;;;5155745;28;20430;-73
2023/04/24 00:35:54;;;;;;;37.97;34.90;;;8.60;99.90;;;;;;5153350;28;20077;-72
2023/04/24 00:38:25;;;;;;;32.35;30.17;;;8.70;99.90;;;;;;5155839;28;20018;-72
2023/04/24 00:40:56;;;;;;;36.70;33.90;;;8.70;99.90;;;;;;5154799;28;20042;-73
2023/04/24 00:43:26;;;;;;;36.40;33.50;;;9.00;99.90;;;;;;5157339;28;20027;-73
2023/04/24 00:45:59;;;;;;;48.28;43.97;;;9.00;99.90;;;;;;5158662;28;20133;-74
2023/04/24 00:48:31;;;;;;;31.50;29.25;;;9.00;99.90;;;;;;5146478;28;20487;-72
2023/04/24 00:51:02;;;;;;;33.45;31.23;;;9.00;99.90;;;;;;5158986;28;20105;-72
2023/04/24 00:53:33;;;;;;;28.33;26.30;;;9.20;99.90;;;;;;5155550;28;20426;-72
2023/04/24 00:56:05;;;;;;;33.42;31.02;;;9.30;99.90;;;;;;5159048;28;20109;-72
2023/04/24 00:58:36;;;;;;;34.10;31.60;;;9.00;99.90;;;;;;5154659;28;20023;-75
2023/04/24 01:01:08;;;;;;;31.70;29.63;;;9.10;99.90;;;;;;5149912;28;20394;-72
2023/04/24 01:03:40;;;;;;;35.53;32.83;;;9.10;99.90;;;;;;5150251;28;20074;-73
2023/04/24 01:06:12;;;;;;;47.25;43.17;;;9.00;99.90;;;;;;5149696;28;20035;-74
2023/04/24 01:08:45;;;;;;;39.10;36.13;;;9.00;99.90;;;;;;5155181;28;20082;-74
2023/04/24 01:11:17;;;;;;;33.15;31.05;;;8.90;99.90;;;;;;5163442;28;20037;-74
2023/04/24 01:13:48;;;;;;;31.38;29.08;;;9.00;99.90;;;;;;5159568;28;20045;-74
2023/04/24 01:16:20;;;;;;;37.50;34.03;;;9.00;99.90;;;;;;5159533;28;20023;-72
2023/04/24 01:18:51;;;;;;;52.90;48.17;;;8.70;99.90;;;;;;5156064;28;20039;-74
2023/04/24 01:21:24;;;;;;;33.03;30.58;;;8.60;99.90;;;;;;5156981;28;20043;-74
2023/04/24 01:23:56;;;;;;;34.85;32.40;;;8.80;99.90;;;;;;5144465;28;20023;-74
2023/04/24 01:26:27;;;;;;;49.70;45.20;;;8.50;99.90;;;;;;5151914;28;20034;-73
2023/04/24 01:28:58;;;;;;;40.60;37.53;;;8.40;99.90;;;;;;5154728;28;20018;-73
2023/04/24 01:31:29;;;;;;;42.33;38.80;;;8.50;99.90;;;;;;5150852;28;20082;-73
2023/04/24 01:34:04;;;;;;;34.45;31.85;;;8.50;99.90;;;;;;5155400;28;20033;-74
2023/04/24 01:36:45;;;;;;;35.88;33.38;;;8.40;99.90;;;;;;5154019;28;20085;-74
2023/04/24 01:39:20;;;;;;;39.85;36.60;;;8.50;99.90;;;;;;5161335;28;20022;-74
2023/04/24 01:41:55;;;;;;;43.58;39.60;;;8.40;99.90;;;;;;5157739;28;20035;-74
2023/04/24 01:44:26;;;;;;;33.63;31.13;;;8.30;99.90;;;;;;5154404;28;20023;-71
2023/04/24 01:46:57;;;;;;;45.08;41.30;;;8.20;99.90;;;;;;5144271;28;20023;-74
2023/04/24 01:49:28;;;;;;;33.38;30.92;;;8.20;99.90;;;;;;5154312;28;20079;-73
2023/04/24 01:51:59;;;;;;;34.42;31.90;;;8.10;99.90;;;;;;5155702;28;20169;-74
2023/04/24 01:54:30;;;;;;;34.40;31.90;;;8.10;99.90;;;;;;5152674;28;20122;-73
2023/04/24 01:57:02;;;;;;;34.30;31.70;;;8.20;99.90;;;;;;5148438;28;20039;-73
2023/04/24 01:59:34;;;;;;;30.75;28.42;;;7.90;99.90;;;;;;5158735;28;20358;-74
2023/04/24 02:02:05;;;;;;;32.10;29.55;;;7.90;99.90;;;;;;5168226;28;20042;-73
2023/04/24 02:04:36;;;;;;;32.53;29.98;;;8.00;99.90;;;;;;5150994;28;20019;-71
2023/04/24 02:07:07;;;;;;;27.67;25.88;;;7.80;99.90;;;;;;5150803;28;20030;-74
2023/04/24 02:09:38;;;;;;;31.73;29.50;;;7.70;99.90;;;;;;5166786;28;20478;-73
2023/04/24 02:12:09;;;;;;;30.33;28.08;;;7.80;99.90;;;;;;5149894;28;20160;-73
2023/04/24 02:14:40;;;;;;;31.17;29.08;;;7.80;99.90;;;;;;5168033;28;20026;-71
2023/04/24 02:17:12;;;;;;;31.10;28.92;;;7.70;99.90;;;;;;5168126;28;20018;-72
2023/04/24 02:19:43;;;;;;;31.02;28.95;;;7.70;99.90;;;;;;5167097;28;20059;-72
2023/04/24 02:22:14;;;;;;;30.35;28.35;;;7.50;99.90;;;;;;5167445;28;20041;-73
2023/04/24 02:24:45;;;;;;;30.60;28.60;;;7.30;99.90;;;;;;5167999;28;20038;-76
2023/04/24 02:27:16;;;;;;;29.83;27.83;;;7.30;99.90;;;;;;5167683;28;20050;-73
2023/04/24 02:29:47;;;;;;;29.17;27.08;;;7.30;99.90;;;;;;5149723;28;20492;-72
2023/04/24 02:32:18;;;;;;;28.48;26.63;;;7.50;99.90;;;;;;5167574;28;20482;-72
2023/04/24 02:34:48;;;;;;;27.67;25.55;;;7.10;99.90;;;;;;5167615;28;20022;-74
2023/04/24 02:37:19;;;;;;;27.20;25.17;;;7.20;99.90;;;;;;5167631;28;20026;-72
2023/04/24 02:39:50;;;;;;;27.85;25.83;;;7.30;99.90;;;;;;5166796;28;20034;-75
2023/04/24 02:42:21;;;;;;;29.50;27.40;;;7.50;99.90;;;;;;5167585;28;20105;-77
2023/04/24 02:44:51;;;;;;;29.95;27.60;;;7.40;99.90;;;;;;5150074;28;20105;-75
2023/04/24 02:47:22;;;;;;;27.35;25.50;;;7.20;99.90;;;;;;5167210;28;20389;-75
2023/04/24 02:49:53;;;;;;;30.45;28.33;;;7.20;99.90;;;;;;5142441;28;20035;-75
2023/04/24 02:52:24;;;;;;;29.55;27.63;;;7.20;99.90;;;;;;5167297;28;20053;-75
2023/04/24 02:54:55;;;;;;;27.63;25.63;;;7.10;99.90;;;;;;5167221;28;20030;-75
2023/04/24 02:57:26;;;;;;;27.92;26.00;;;6.80;99.90;;;;;;5167556;28;20037;-75
2023/04/24 02:59:56;;;;;;;28.27;26.42;;;7.00;99.90;;;;;;5167025;28;20458;-78
2023/04/24 03:02:27;;;;;;;29.23;27.13;;;6.70;99.90;;;;;;5167305;28;20023;-76
2023/04/24 03:04:59;;;;;;;29.48;27.33;;;6.70;99.90;;;;;;5166863;28;20026;-76
2023/04/24 03:07:31;;;;;;;29.27;27.13;;;6.50;99.90;;;;;;5165930;28;20057;-77
2023/04/24 03:10:02;;;;;;;28.85;27.02;;;6.70;99.90;;;;;;5167039;28;20510;-77
2023/04/24 03:12:33;;;;;;;29.20;27.23;;;6.60;99.90;;;;;;5166637;28;20069;-76
2023/04/24 03:15:04;;;;;;;31.30;29.10;;;6.50;99.90;;;;;;5167269;28;20085;-78
2023/04/24 03:17:35;;;;;;;29.23;27.10;;;6.70;99.90;;;;;;5147089;28;20133;-75
2023/04/24 03:20:07;;;;;;;29.98;27.63;;;7.00;99.90;;;;;;5166515;28;20138;-78
2023/04/24 03:22:38;;;;;;;31.85;29.55;;;6.80;99.90;;;;;;5166662;28;20022;-78
2023/04/24 03:25:09;;;;;;;33.17;30.65;;;6.40;99.90;;;;;;5167003;28;20037;-74
2023/04/24 03:27:41;;;;;;;33.50;31.02;;;6.40;99.90;;;;;;5164758;28;20031;-76
2023/04/24 03:30:12;;;;;;;32.53;30.13;;;6.50;99.90;;;;;;5149271;28;21842;-77
2023/04/24 03:32:43;;;;;;;36.83;33.92;;;6.40;99.90;;;;;;5149206;28;20134;-83
2023/04/24 03:35:14;;;;;;;31.67;29.58;;;6.80;99.90;;;;;;5167565;28;20030;-77
2023/04/24 03:37:45;;;;;;;32.47;30.20;;;6.30;99.90;;;;;;5164674;28;20034;-77
2023/04/24 03:40:15;;;;;;;32.75;30.52;;;6.50;99.90;;;;;;5150909;28;20068;-78
2023/04/24 03:42:46;;;;;;;36.45;34.00;;;6.60;99.90;;;;;;5164887;28;20451;-81
2023/04/24 03:45:17;;;;;;;36.35;33.35;;;6.70;99.90;;;;;;5167092;28;20034;-79
2023/04/24 03:47:48;;;;;;;56.17;49.00;;;6.80;99.90;;;;;;5149165;28;20030;-78
2023/04/24 03:50:19;;;;;;;35.50;32.17;;;7.10;99.90;;;;;;5167284;28;20046;-78
2023/04/24 03:52:50;;;;;;;38.17;34.88;;;6.80;99.90;;;;;;5167207;28;20054;-78
2023/04/24 03:55:21;;;;;;;78.47;57.38;;;6.80;99.90;;;;;;5166889;28;20034;-78
2023/04/24 03:57:51;;;;;;;76.45;57.75;;;6.90;99.90;;;;;;5167340;28;20394;-78
2023/04/24 04:00:22;;;;;;;45.58;40.72;;;7.00;99.90;;;;;;5149506;28;20026;-78
2023/04/24 04:02:53;;;;;;;39.03;35.90;;;7.10;99.90;;;;;;5149526;28;20366;-78
2023/04/24 04:05:24;;;;;;;37.28;34.47;;;7.10;99.90;;;;;;5167050;28;20026;-78
2023/04/24 04:07:55;;;;;;;38.88;35.92;;;7.20;99.90;;;;;;5167210;28;20030;-78
2023/04/24 04:10:25;;;;;;;41.60;37.58;;;7.40;99.90;;;;;;5167078;28;20034;-78
2023/04/24 04:12:56;;;;;;;39.70;36.65;;;7.30;99.90;;;;;;5149469;28;20033;-78
2023/04/24 04:15:27;;;;;;;33.92;31.67;;;7.30;99.90;;;;;;5166875;28;20030;-78
2023/04/24 04:17:58;;;;;;;33.08;30.67;;;7.60;99.90;;;;;;5166170;28;20053;-79
2023/04/24 04:20:29;;;;;;;32.28;30.13;;;7.60;99.90;;;;;;5166040;28;20058;-78
2023/04/24 04:23:00;;;;;;;33.15;30.85;;;7.80;99.90;;;;;;5149384;28;20034;-80
2023/04/24 04:25:30;;;;;;;32.10;30.00;;;7.70;99.90;;;;;;5166149;28;20074;-78
2023/04/24 04:28:01;;;;;;;32.05;29.88;;;7.80;99.90;;;;;;5166633;28;20025;-81
2023/04/24 04:30:32;;;;;;;32.22;29.67;;;7.60;99.90;;;;;;5149211;28;20053;-77
2023/04/24 04:33:03;;;;;;;33.38;31.10;;;7.70;99.90;;;;;;5149054;28;20393;-78
2023/04/24 04:35:34;;;;;;;33.53;30.95;;;7.70;99.90;;;;;;5166411;28;20026;-78
2023/04/24 04:38:08;;;;;;;33.85;31.75;;;7.90;99.90;;;;;;5166819;28;20026;-77
2023/04/24 04:40:39;;;;;;;33.40;31.30;;;8.00;99.90;;;;;;5149207;28;20034;-78
2023/04/24 04:43:10;;;;;;;32.45;30.38;;;8.20;99.90;;;;;;5166373;28;20034;-77
2023/04/24 04:45:43;;;;;;;33.20;30.98;;;8.20;99.90;;;;;;5166610;28;20415;-77
2023/04/24 04:48:14;;;;;;;31.08;29.20;;;8.10;99.90;;;;;;5166597;28;20026;-78
2023/04/24 04:50:45;;;;;;;35.53;33.35;;;8.10;99.90;;;;;;5148901;28;20030;-79
2023/04/24 04:53:16;;;;;;;30.30;28.23;;;8.50;99.90;;;;;;5148105;28;20038;-78
2023/04/24 04:55:47;;;;;;;30.63;28.65;;;8.30;99.90;;;;;;5149025;28;20034;-78
2023/04/24 04:58:18;;;;;;;32.72;30.63;;;8.50;99.90;;;;;;5165912;28;20069;-80
2023/04/24 05:00:49;;;;;;;33.45;31.25;;;8.60;99.90;;;;;;5166369;28;20093;-78
2023/04/24 05:03:20;;;;;;;30.13;28.13;;;8.70;99.90;;;;;;5166604;28;20486;-78
2023/04/24 05:05:51;;;;;;;30.13;28.25;;;9.00;99.90;;;;;;5165928;28;20097;-78
2023/04/24 05:08:21;;;;;;;30.13;28.20;;;8.80;99.90;;;;;;5166497;28;20027;-78
2023/04/24 05:10:52;;;;;;;32.10;29.92;;;8.80;99.90;;;;;;5148789;28;20038;-78
2023/04/24 05:13:23;;;;;;;28.10;26.30;;;8.90;99.90;;;;;;5166406;28;20018;-78
2023/04/24 05:15:54;;;;;;;28.58;26.45;;;8.80;99.90;;;;;;5166462;28;20019;-78
2023/04/24 05:18:25;;;;;;;29.05;27.10;;;8.80;99.90;;;;;;5165401;28;20029;-81
2023/04/24 05:20:56;;;;;;;28.17;26.08;;;8.90;99.90;;;;;;5166468;28;20031;-78
2023/04/24 05:23:26;;;;;;;29.88;27.67;;;9.50;99.90;;;;;;5166014;28;20027;-78
2023/04/24 05:25:57;;;;;;;27.63;25.90;;;9.80;99.90;;;;;;5148321;28;20030;-78
2023/04/24 05:28:28;;;;;;;27.55;25.40;;;10.00;99.90;;;;;;5149184;28;20022;-78
2023/04/24 05:30:59;;;;;;;28.70;26.63;;;10.20;99.90;;;;;;5152591;28;20549;-81
2023/04/24 05:33:30;;;;;;;28.00;25.80;;;10.20;99.90;;;;;;5170153;28;20030;-81
2023/04/24 05:36:01;;;;;;;28.35;25.90;;;10.40;99.90;;;;;;5152701;28;20131;-82
2023/04/24 05:38:32;;;;;;;24.95;23.15;;;10.70;99.90;;;;;;5169763;28;20102;-83
2023/04/24 05:41:03;;;;;;;28.63;26.70;;;11.00;99.90;;;;;;5152355;28;20035;-79
2023/04/24 05:43:34;;;;;;;29.65;27.65;;;11.20;99.90;;;;;;5152583;28;20440;-78
2023/04/24 05:46:05;;;;;;;27.52;25.45;;;11.30;99.90;;;;;;5169832;28;20409;-78
2023/04/24 05:48:36;;;;;;;33.40;30.92;;;11.60;99.90;;;;;;5152017;28;20085;-78
2023/04/24 05:51:06;;;;;;;35.85;33.08;;;11.80;99.90;;;;;;5152032;28;20050;-78
2023/04/24 05:53:37;;;;;;;35.30;32.90;;;12.10;99.90;;;;;;5152340;28;20022;-79
2023/04/24 05:56:08;;;;;;;40.17;37.25;;;12.10;99.90;;;;;;5169415;28;20645;-81
2023/04/24 05:58:39;;;;;;;37.33;34.80;;;12.10;99.90;;;;;;5169575;28;20022;-76
2023/04/24 06:01:10;;;;;;;39.35;36.35;;;12.50;99.90;;;;;;5169444;28;20105;-74
2023/04/24 06:03:41;;;;;;;39.47;36.67;;;12.80;99.90;;;;;;5169231;28;20210;-75
2023/04/24 06:06:12;;;;;;;39.75;37.13;;;12.70;99.90;;;;;;5169591;28;20023;-75
2023/04/24 06:08:43;;;;;;;39.45;36.75;;;12.80;99.90;;;;;;5151298;28;20024;-75
2023/04/24 06:11:14;;;;;;;36.25;33.72;;;12.70;99.90;;;;;;5168062;28;20038;-76
2023/04/24 06:13:45;;;;;;;36.10;33.53;;;12.70;99.90;;;;;;5169038;28;20027;-75
2023/04/24 06:16:16;;;;;;;35.22;32.67;;;12.70;99.90;;;;;;5169233;28;20172;-76
2023/04/24 06:18:47;;;;;;;33.45;31.05;;;12.70;99.90;;;;;;5168865;28;20039;-76
2023/04/24 06:21:18;;;;;;;32.33;30.17;;;13.10;99.90;;;;;;5169152;28;20049;-75
2023/04/24 06:23:49;;;;;;;32.67;30.55;;;13.20;99.90;;;;;;5169207;28;20053;-75
2023/04/24 06:26:20;;;;;;;28.92;26.92;;;13.50;99.90;;;;;;5169657;28;20494;-75
2023/04/24 06:28:51;;;;;;;29.83;27.83;;;13.60;99.90;;;;;;5168850;28;20026;-75
2023/04/24 06:31:22;;;;;;;30.60;28.38;;;13.70;99.90;;;;;;5169089;28;20042;-74
2023/04/24 06:33:54;;;;;;;31.23;28.73;;;13.90;99.90;;;;;;5151236;28;20572;-75
2023/04/24 06:36:24;;;;;;;24.73;22.75;;;14.10;99.90;;;;;;5169057;28;20036;-75
2023/04/24 06:38:56;;;;;;;29.38;27.17;;;14.30;99.90;;;;;;5168778;28;20022;-74
2023/04/24 06:41:28;;;;;;;28.27;26.23;;;14.40;99.90;;;;;;5167880;28;20065;-74
2023/04/24 06:43:59;;;;;;;27.27;24.85;;;14.30;99.90;;;;;;5168585;28;20101;-75
2023/04/24 06:46:30;;;;;;;26.23;24.08;;;14.30;99.90;;;;;;5168876;28;20134;-74
2023/04/24 06:49:01;;;;;;;28.23;25.95;;;14.60;99.90;;;;;;5168482;28;20034;-76
2023/04/24 06:51:32;;;;;;;26.42;24.52;;;14.60;99.90;;;;;;5168522;28;20049;-75
2023/04/24 06:54:03;;;;;;;25.85;23.83;;;14.90;99.90;;;;;;5168578;28;20041;-75
2023/04/24 06:56:34;;;;;;;25.17;23.27;;;14.90;99.90;;;;;;5151122;28;20035;-74
2023/04/24 06:59:05;;;;;;;25.42;23.73;;;15.10;99.90;;;;;;5150753;28;20022;-75
2023/04/24 07:01:36;;;;;;;23.77;21.83;;;15.00;99.90;;;;;;5168478;28;20109;-75
2023/04/24 07:04:06;;;;;;;25.05;23.25;;;14.70;99.90;;;;;;5168345;28;20432;-76
2023/04/24 07:06:37;;;;;;;25.30;23.60;;;14.90;99.90;;;;;;5168145;28;20041;-75
2023/04/24 07:09:09;;;;;;;24.77;23.05;;;15.10;99.90;;;;;;5167737;28;20386;-75
2023/04/24 07:11:40;;;;;;;25.23;23.42;;;15.60;99.90;;;;;;5168053;28;20138;-76
2023/04/24 07:14:12;;;;;;;25.00;22.88;;;15.40;99.90;;;;;;5168165;28;20015;-74
2023/04/24 07:16:43;;;;;;;24.15;22.52;;;15.50;99.90;;;;;;5168049;28;20065;-74
2023/04/24 07:19:14;;;;;;;23.30;21.58;;;15.40;99.90;;;;;;5167697;28;20406;-74
2023/04/24 07:21:45;;;;;;;22.33;20.77;;;15.80;99.90;;;;;;5168118;28;20030;-74
2023/04/24 07:24:16;;;;;;;23.10;21.40;;;15.70;99.90;;;;;;5167728;28;20033;-74
2023/04/24 07:26:46;;;;;;;22.88;21.38;;;15.70;99.90;;;;;;5150421;28;20077;-75
2023/04/24 07:29:19;;;;;;;21.00;19.48;;;15.80;99.90;;;;;;5167707;28;20026;-74
2023/04/24 07:31:50;;;;;;;20.27;18.90;;;16.00;99.90;;;;;;5150368;28;20482;-74
2023/04/24 07:34:21;;;;;;;21.70;20.40;;;15.80;99.90;;;;;;5167539;28;20018;-74
2023/04/24 07:36:52;;;;;;;21.30;19.80;;;16.00;99.90;;;;;;5167661;28;20378;-76
2023/04/24 07:39:23;;;;;;;20.60;18.88;;;16.20;99.90;;;;;;5167823;28;20463;-75
2023/04/24 07:41:54;;;;;;;22.50;20.67;;;16.70;99.90;;;;;;5167830;28;20402;-75
2023/04/24 07:44:26;;;;;;;23.90;21.73;;;16.60;99.90;;;;;;5167772;28;20037;-74
2023/04/24 07:46:57;;;;;;;21.73;20.15;;;16.70;99.90;;;;;;5167041;28;20039;-74
2023/04/24 07:49:28;;;;;;;22.60;21.05;;;16.60;99.90;;;;;;5167237;28;20397;-75
2023/04/24 07:52:01;;;;;;;21.92;20.42;;;16.80;99.90;;;;;;5166919;28;20038;-74
2023/04/24 07:54:32;;;;;;;24.85;23.25;;;16.90;99.90;;;;;;5167283;28;20306;-74
2023/04/24 07:57:04;;;;;;;25.45;23.67;;;17.00;99.90;;;;;;5167346;28;20109;-76
2023/04/24 07:59:34;;;;;;;23.05;21.40;;;16.80;99.90;;;;;;5167222;28;20109;-74
2023/04/24 08:02:06;;;;;;;23.83;21.98;;;17.00;99.90;;;;;;5149758;28;20121;-76
2023/04/24 08:04:37;;;;;;;23.40;21.65;;;17.20;99.90;;;;;;5165736;28;20378;-75
2023/04/24 08:07:08;;;;;;;23.55;21.83;;;17.20;99.90;;;;;;5149615;28;20030;-74
2023/04/24 08:09:38;;;;;;;23.85;22.10;;;17.30;99.90;;;;;;5149647;28;20045;-75
2023/04/24 08:12:09;;;;;;;24.38;22.77;;;17.00;99.90;;;;;;5166934;28;20030;-75
2023/04/24 08:14:40;;;;;;;25.00;23.30;;;17.30;99.90;;;;;;5167026;28;20026;-74
2023/04/24 08:17:11;;;;;;;22.20;20.60;;;17.70;99.90;;;;;;5166379;28;20073;-74
2023/04/24 08:19:47;;;;;;;27.70;25.05;;;17.50;99.90;;;;;;5165411;28;20554;-74
2023/04/24 08:22:18;;;;;;;18.35;17.05;;;17.60;99.90;;;;;;5149063;28;20041;-74
2023/04/24 08:24:49;;;;;;;19.25;17.85;;;17.80;99.90;;;;;;5166480;28;20022;-75
2023/04/24 08:27:20;;;;;;;19.48;18.02;;;17.70;99.90;;;;;;5166499;28;20030;-75
2023/04/24 08:29:50;;;;;;;20.73;19.13;;;18.00;99.90;;;;;;5166553;28;20026;-74
2023/04/24 08:32:21;;;;;;;18.60;16.90;;;18.10;99.90;;;;;;5148967;28;20039;-74
2023/04/24 08:34:52;;;;;;;20.27;18.80;;;18.30;99.90;;;;;;5166569;28;20053;-76
2023/04/24 08:37:23;;;;;;;18.52;17.33;;;18.30;99.90;;;;;;5166597;28;20057;-75
2023/04/24 08:39:54;;;;;;;16.90;15.65;;;18.60;99.90;;;;;;5166413;28;20065;-76
2023/04/24 08:42:28;;;;;;;18.90;17.38;;;18.50;99.90;;;;;;5166779;28;20113;-74
2023/04/24 08:44:59;;;;;;;19.33;17.95;;;18.70;99.90;;;;;;5149228;28;20038;-74
2023/04/24 08:47:31;;;;;;;18.63;17.17;;;18.70;99.90;;;;;;5148579;28;20030;-74
2023/04/24 08:50:05;;;;;;;18.95;17.38;;;18.60;99.90;;;;;;5166147;28;20352;-75
2023/04/24 08:52:36;;;;;;;19.30;17.50;;;18.50;99.90;;;;;;5166289;28;20113;-75
2023/04/24 08:55:07;;;;;;;18.58;17.08;;;18.70;99.90;;;;;;5166075;28;20431;-76
2023/04/24 08:57:40;;;;;;;19.48;18.02;;;19.00;99.90;;;;;;5166377;28;20021;-74
2023/04/24 09:00:11;;;;;;;20.85;19.20;;;18.80;99.90;;;;;;5166294;28;20541;-74
2023/04/24 09:02:43;;;;;;;19.90;18.50;;;19.10;99.90;;;;;;5166282;28;20033;-74
2023/04/24 09:05:17;;;;;;;21.38;19.98;;;18.60;99.90;;;;;;5148389;28;20041;-75
2023/04/24 09:07:54;;;;;;;21.33;19.63;;;18.80;99.90;;;;;;5166291;28;20023;-75
2023/04/24 09:10:26;;;;;;;20.48;19.02;;;18.20;99.90;;;;;;5166232;28;20029;-75
2023/04/24 09:12:58;;;;;;;19.13;17.33;;;18.40;99.90;;;;;;5166066;28;20066;-75
2023/04/24 09:15:30;;;;;;;19.75;18.33;;;19.00;99.90;;;;;;5148717;28;20026;-75
2023/04/24 09:18:01;;;;;;;20.55;19.13;;;18.60;99.90;;;;;;5166063;28;20375;-75
2023/04/24 09:20:33;;;;;;;19.60;17.90;;;18.60;99.90;;;;;;5165651;28;20498;-75
2023/04/24 09:23:04;;;;;;;21.65;20.10;;;18.90;99.90;;;;;;5165974;28;20050;-73
2023/04/24 09:25:38;;;;;;;20.90;19.25;;;19.50;99.90;;;;;;5166038;28;20520;-74
2023/04/24 09:28:08;;;;;;;22.42;20.80;;;19.40;99.90;;;;;;5148859;28;20026;-74
2023/04/24 09:30:39;;;;;;;21.83;19.77;;;19.00;99.90;;;;;;5166063;28;20034;-74
2023/04/24 09:33:14;;;;;;;22.25;20.65;;;19.20;99.90;;;;;;5148275;28;20427;-75
2023/04/24 09:35:51;;;;;;;23.60;21.42;;;19.50;99.90;;;;;;5148622;28;20030;-76
2023/04/24 09:38:35;;;;;;;21.58;20.15;;;19.10;99.90;;;;;;5165903;28;20084;-74
2023/04/24 09:41:08;;;;;;;23.10;21.38;;;19.50;99.90;;;;;;5165836;28;20463;-75
2023/04/24 09:43:38;;;;;;;21.30;19.80;;;19.40;99.90;;;;;;5164879;28;20466;-73
2023/04/24 09:46:09;;;;;;;22.58;20.77;;;19.10;99.90;;;;;;5148710;28;20121;-74
2023/04/24 09:48:40;;;;;;;22.20;20.63;;;19.10;99.80;;;;;;5148220;28;20034;-75
2023/04/24 09:51:12;;;;;;;21.98;19.95;;;19.00;99.90;;;;;;5165388;28;20042;-76
2023/04/24 09:53:47;;;;;;;23.38;21.63;;;19.00;99.90;;;;;;5165870;28;20058;-75
2023/04/24 09:56:18;;;;;;;22.52;20.67;;;19.00;99.90;;;;;;5165551;28;20034;-74
2023/04/24 09:58:48;;;;;;;22.95;21.05;;;19.70;99.90;;;;;;5148444;28;20077;-75
2023/04/24 10:01:32;;;;;;;22.30;20.50;;;19.10;99.90;;;;;;5165727;28;20030;-75
2023/04/24 10:04:03;;;;;;;22.60;20.80;;;18.90;99.70;;;;;;5147991;28;20934;-76
2023/04/24 10:06:34;;;;;;;22.80;20.75;;;19.40;99.90;;;;;;5166033;28;20034;-74
2023/04/24 10:09:06;;;;;;;22.17;20.45;;;19.10;99.90;;;;;;5165518;28;20129;-74
2023/04/24 10:11:37;;;;;;;22.50;20.65;;;19.50;99.90;;;;;;5147905;28;20101;-76
2023/04/24 10:14:11;;;;;;;22.85;20.88;;;19.00;96.90;;;;;;5165563;28;20482;-75
2023/04/24 10:16:43;;;;;;;23.80;21.60;;;19.60;99.90;;;;;;5150285;28;20038;-75
2023/04/24 10:19:15;;;;;;;20.75;19.30;;;19.20;97.90;;;;;;5167394;28;20061;-75
2023/04/24 10:21:47;;;;;;;28.63;25.85;;;19.10;97.00;;;;;;5151671;28;20026;-75
2023/04/24 10:24:20;;;;;;;22.75;20.95;;;19.60;98.30;;;;;;5168966;28;20355;-74
2023/04/24 10:26:52;;;;;;;22.60;20.40;;;19.50;94.40;;;;;;5169091;28;20101;-74
2023/04/24 10:29:24;;;;;;;23.95;22.30;;;19.70;93.50;;;;;;5151353;28;20498;-75
2023/04/24 10:31:55;;;;;;;24.73;22.60;;;19.70;92.40;;;;;;5167541;28;20434;-74
2023/04/24 10:34:26;;;;;;;24.23;22.23;;;20.00;99.80;;;;;;5168986;28;20032;-75
2023/04/24 10:36:57;;;;;;;21.90;20.38;;;19.90;99.90;;;;;;5168752;28;20026;-74
2023/04/24 10:39:30;;;;;;;24.35;22.35;;;20.80;99.90;;;;;;5151094;28;20026;-74
2023/04/24 10:42:01;;;;;;;23.55;21.77;;;21.10;99.90;;;;;;5168654;28;20069;-74
2023/04/24 10:44:40;;;;;;;27.35;25.05;;;20.10;94.50;;;;;;5168508;28;20031;-77
2023/04/24 10:47:14;;;;;;;25.07;23.10;;;19.70;96.20;;;;;;5168337;28;20034;-76
2023/04/24 10:49:45;;;;;;;25.40;23.35;;;19.80;95.60;;;;;;5168143;28;20045;-76
2023/04/24 10:52:16;;;;;;;30.80;27.80;;;19.50;92.50;;;;;;5168182;28;20034;-76
2023/04/24 10:54:49;;;;;;;24.27;22.15;;;19.80;98.10;;;;;;5150490;28;20076;-74
2023/04/24 11:00:10;;;;;;;24.33;22.17;;;20.00;95.30;;;;;;5168200;28;20030;-74
2023/04/24 11:02:48;;;;;;;28.02;25.55;;;20.20;94.90;;;;;;5150633;28;20366;-76
2023/04/24 11:05:20;;;;;;;25.45;23.48;;;20.50;94.80;;;;;;5168075;28;20034;-75
2023/04/24 11:08:21;;;;;;;27.83;25.73;;;20.80;99.80;;;;;;5168220;28;20084;-76
2023/04/24 11:11:01;;;;;;;29.05;26.65;;;21.00;92.40;;;;;;5150238;28;20030;-76
2023/04/24 11:13:53;;;;;;;31.10;28.33;;;20.70;95.20;;;;;;5167799;28;20088;-76
2023/04/24 11:16:29;;;;;;;30.17;27.40;;;20.70;98.80;;;;;;5167904;28;20041;-74
2023/04/24 11:19:18;;;;;;;28.38;25.92;;;20.50;99.90;;;;;;5167295;28;20450;-74
2023/04/24 11:22:00;;;;;;;29.45;27.35;;;20.30;98.00;;;;;;5167579;28;20022;-75
2023/04/24 11:24:51;;;;;;;30.00;27.73;;;20.80;96.00;;;;;;5167740;28;20123;-76
2023/04/24 11:27:22;;;;;;;34.10;31.02;;;21.00;99.00;;;;;;5167069;28;20056;-75
2023/04/24 11:29:56;;;;;;;31.92;28.95;;;20.30;99.90;;;;;;5167293;28;20029;-74
2023/04/24 11:32:36;;;;;;;32.33;29.52;;;19.90;99.90;;;;;;5167491;28;20034;-74
2023/04/24 11:35:12;;;;;;;;;;;20.00;99.90;;;;;;5168001;28;20022;-74
2023/04/24 11:37:49;;;;;;;32.67;29.98;;;20.10;99.90;;;;;;5167396;28;20001;-75
2023/04/24 11:40:28;;;;;;;33.03;30.40;;;20.40;99.90;;;;;;5167145;28;20057;-75
2023/04/24 11:43:00;;;;;;;32.72;30.15;;;21.20;99.90;;;;;;5166176;28;20022;-74
2023/04/24 11:45:31;;;;;;;31.85;29.08;;;20.60;99.90;;;;;;5167264;28;20031;-74
2023/04/24 11:48:03;;;;;;;31.42;28.80;;;19.90;99.90;;;;;;5167443;28;20368;-77
2023/04/24 11:50:35;;;;;;;32.75;29.80;;;20.50;99.90;;;;;;5166595;28;20038;-77
2023/04/24 11:53:05;;;;;;;32.85;30.23;;;20.40;99.90;;;;;;5167219;28;20022;-74
2023/04/24 11:55:36;;;;;;;32.50;29.83;;;20.60;99.90;;;;;;5149635;28;20477;-74
2023/04/24 11:58:07;;;;;;;29.33;26.92;;;20.60;99.90;;;;;;5167059;28;20094;-75
2023/04/24 12:00:38;;;;;;;31.98;29.25;;;20.20;99.90;;;;;;5149680;28;20028;-74
2023/04/24 12:03:12;;;;;;;34.45;31.42;;;20.20;99.90;;;;;;5166958;28;20374;-75
2023/04/24 12:05:44;;;;;;;33.47;30.48;;;20.50;99.90;;;;;;5149552;28;20027;-75
2023/04/24 12:08:34;;;;;;;33.40;31.05;;;20.60;99.90;;;;;;5166913;28;20382;-74
2023/04/24 12:11:09;;;;;;;34.03;31.17;;;20.00;99.90;;;;;;5167058;28;20549;-74
2023/04/24 12:13:40;;;;;;;36.83;33.83;;;20.30;99.90;;;;;;5166960;28;20360;-74
2023/04/24 12:16:11;;;;;;;31.63;29.25;;;19.60;99.90;;;;;;5149177;28;20030;-77
2023/04/24 12:18:43;;;;;;;30.77;28.52;;;19.90;99.90;;;;;;5166412;28;20049;-75
2023/04/24 12:21:17;;;;;;;29.92;27.42;;;19.70;99.90;;;;;;5149217;28;20038;-76
2023/04/24 12:23:48;;;;;;;30.15;27.92;;;19.90;99.90;;;;;;5167113;28;20425;-74
2023/04/24 12:26:22;;;;;;;30.08;27.80;;;20.20;99.90;;;;;;5166880;28;20489;-74
2023/04/24 12:28:53;;;;;;;28.92;26.70;;;19.60;99.90;;;;;;5166658;28;20072;-74
2023/04/24 12:31:23;;;;;;;30.60;28.13;;;20.00;99.90;;;;;;5166316;28;20050;-75
2023/04/24 12:33:55;;;;;;;27.05;25.05;;;20.30;99.90;;;;;;5166569;28;20466;-75
2023/04/24 12:36:26;;;;;;;26.00;23.65;;;20.20;99.70;;;;;;5148349;28;20037;-75
2023/04/24 12:38:57;;;;;;;28.45;26.05;;;20.20;98.60;;;;;;5165917;28;20405;-76
2023/04/24 12:41:30;;;;;;;23.25;21.35;;;19.80;95.00;;;;;;5166219;28;20034;-75
2023/04/24 12:44:01;;;;;;;24.35;22.33;;;20.20;95.60;;;;;;5166638;28;20097;-75
2023/04/24 12:46:32;;;;;;;21.27;19.58;;;19.90;91.50;;;;;;5166153;28;20530;-74
2023/04/24 12:49:03;;;;;;;22.27;20.60;;;20.10;94.30;;;;;;5166213;28;20474;-75
2023/04/24 12:51:34;;;;;;;21.67;20.00;;;20.00;91.20;;;;;;5166223;28;20056;-75
2023/04/24 12:54:05;;;;;;;25.67;23.63;;;20.10;90.40;;;;;;5166259;28;20081;-74
2023/04/24 12:56:39;;;;;;;20.50;18.40;;;20.30;88.60;;;;;;5166067;28;20032;-75